PWSweather.com
Personal Weather Stations
Station Observations
133525
West Seneca Near Buffalo Airpark, West Seneca, NY 14224

West Seneca Near Buffalo AirparkWest Seneca, NY 14224

Lat: 42.850058, Lon: -78.799754

Elevation: 603

Station Type: Davis Vantage Vue pro2

http://westsenecaweather.com/

High Low Average
Temperature 60.9°F16.1°F 41.1°F5.1°F 49.4°F9.7°F
Dew Point 52.6°F11.4°F 40.5°F4.7°F 46.5°F8.1°F
Winds 4.6 mph S7.4 mph S Calm Calm 0.9 mph 1.4 mph
Wind Gusts 8.1 mph13.0 mph -- 1.5 mph2.4 mph
Humidity 98% 70% 90%
Pressure 29.82 in1009.80 in 29.66 in1004.40 in -
Precipitation 0.00 in0.00 in - -
Hour Temp Dew Point Humidity Winds Wind Gusts Pressure Precip Precip Rate Daily Precip Total
12:00 AM 42.2°F5.7°C 41.4°F5.2°C 97% 3.5 mph SW5.6 kmh SW 8.1 mph13.0 kmh 29.79 in1008.8 mb - 0.00 in0.0 mm 0.00 in0.0 mm
12:10 AM 41.8°F5.4°C 41.0°F5.0°C 97% 3.5 mph SW5.6 kmh SW 8.1 mph13.0 kmh 29.79 in1008.8 mb - 0.00 in0.0 mm 0.00 in0.0 mm
12:20 AM 41.6°F5.3°C 40.8°F4.9°C 97% 3.5 mph WSW5.6 kmh WSW 4.6 mph7.4 kmh 29.79 in1008.8 mb - 0.00 in0.0 mm 0.00 in0.0 mm
12:30 AM 41.4°F5.2°C 40.6°F4.8°C 97% 3.5 mph SW5.6 kmh SW 3.5 mph5.6 kmh 29.80 in1009.1 mb - 0.00 in0.0 mm 0.00 in0.0 mm
12:40 AM 41.3°F5.2°C 40.5°F4.7°C 97% 2.3 mph SW3.7 kmh SW 3.5 mph5.6 kmh 29.80 in1009.1 mb - 0.00 in0.0 mm 0.00 in0.0 mm
12:50 AM 41.3°F5.2°C 40.5°F4.7°C 97% 1.2 mph SW1.9 kmh SW 3.5 mph5.6 kmh 29.80 in1009.1 mb - 0.00 in0.0 mm 0.00 in0.0 mm
01:00 AM 41.3°F5.2°C 40.5°F4.7°C 97% 2.3 mph SW3.7 kmh SW 8.1 mph13.0 kmh 29.80 in1009.1 mb - 0.00 in0.0 mm 0.00 in0.0 mm
01:10 AM 41.3°F5.2°C 40.8°F4.9°C 98% 1.2 mph S1.9 kmh S 2.3 mph3.7 kmh 29.80 in1009.1 mb - 0.00 in0.0 mm 0.00 in0.0 mm
01:20 AM 41.5°F5.3°C 41.0°F5.0°C 98% 1.2 mph SSW1.9 kmh SSW 3.5 mph5.6 kmh 29.81 in1009.5 mb - 0.00 in0.0 mm 0.00 in0.0 mm
01:30 AM 41.4°F5.2°C 40.9°F4.9°C 98% 2.3 mph SW3.7 kmh SW 4.6 mph7.4 kmh 29.81 in1009.5 mb - 0.00 in0.0 mm 0.00 in0.0 mm
01:40 AM 41.2°F5.1°C 40.6°F4.8°C 98% 2.3 mph SW3.7 kmh SW 3.5 mph5.6 kmh 29.81 in1009.5 mb - 0.00 in0.0 mm 0.00 in0.0 mm
01:50 AM 41.1°F5.1°C 40.6°F4.8°C 98% 4.6 mph S7.4 kmh S 4.6 mph7.4 kmh 29.82 in1009.8 mb - 0.00 in0.0 mm 0.00 in0.0 mm
02:00 AM 41.1°F5.1°C 40.6°F4.8°C 98% 1.2 mph S1.9 kmh S 2.3 mph3.7 kmh 29.82 in1009.8 mb - 0.00 in0.0 mm 0.00 in0.0 mm
02:10 AM 41.3°F5.2°C 40.8°F4.9°C 98% 1.2 mph SW1.9 kmh SW 3.5 mph5.6 kmh 29.82 in1009.8 mb - 0.00 in0.0 mm 0.00 in0.0 mm
02:20 AM 41.4°F5.2°C 40.9°F4.9°C 98% 2.3 mph SW3.7 kmh SW 3.5 mph5.6 kmh 29.82 in1009.8 mb - 0.00 in0.0 mm 0.00 in0.0 mm
02:30 AM 41.6°F5.3°C 41.1°F5.1°C 98% 3.5 mph SW5.6 kmh SW 3.5 mph5.6 kmh 29.82 in1009.8 mb - 0.00 in0.0 mm 0.00 in0.0 mm
02:40 AM 41.8°F5.4°C 41.3°F5.2°C 98% 3.5 mph S5.6 kmh S 4.6 mph7.4 kmh 29.82 in1009.8 mb - 0.00 in0.0 mm 0.00 in0.0 mm
02:50 AM 41.9°F5.5°C 41.4°F5.2°C 98% 2.3 mph SW3.7 kmh SW 3.5 mph5.6 kmh 29.82 in1009.8 mb - 0.00 in0.0 mm 0.00 in0.0 mm
03:00 AM 41.9°F5.5°C 41.4°F5.2°C 98% 3.5 mph S5.6 kmh S 3.5 mph5.6 kmh 29.82 in1009.8 mb - 0.00 in0.0 mm 0.00 in0.0 mm
03:10 AM 41.9°F5.5°C 41.4°F5.2°C 98% 2.3 mph S3.7 kmh S 3.5 mph5.6 kmh 29.82 in1009.8 mb - 0.00 in0.0 mm 0.00 in0.0 mm
03:20 AM 42.0°F5.6°C 41.5°F5.3°C 98% 1.2 mph S1.9 kmh S 2.3 mph3.7 kmh 29.82 in1009.8 mb - 0.00 in0.0 mm 0.00 in0.0 mm
03:30 AM 42.2°F5.7°C 41.7°F5.4°C 98% 1.2 mph S1.9 kmh S 3.5 mph5.6 kmh 29.81 in1009.5 mb - 0.00 in0.0 mm 0.00 in0.0 mm
03:40 AM 42.3°F5.7°C 41.8°F5.4°C 98% 1.2 mph SW1.9 kmh SW 1.2 mph1.9 kmh 29.81 in1009.5 mb - 0.00 in0.0 mm 0.00 in0.0 mm
03:50 AM 42.4°F5.8°C 41.9°F5.5°C 98% 2.3 mph S3.7 kmh S 3.5 mph5.6 kmh 29.81 in1009.5 mb - 0.00 in0.0 mm 0.00 in0.0 mm
04:00 AM 42.7°F5.9°C 42.2°F5.7°C 98% 1.2 mph SSW1.9 kmh SSW 2.3 mph3.7 kmh 29.81 in1009.5 mb - 0.00 in0.0 mm 0.00 in0.0 mm
04:10 AM 42.9°F6.1°C 42.4°F5.8°C 98% 1.2 mph S1.9 kmh S 2.3 mph3.7 kmh 29.81 in1009.5 mb - 0.00 in0.0 mm 0.00 in0.0 mm
04:20 AM 43.0°F6.1°C 42.5°F5.8°C 98% 1.2 mph SSE1.9 kmh SSE 2.3 mph3.7 kmh 29.81 in1009.5 mb - 0.00 in0.0 mm 0.00 in0.0 mm
04:30 AM 43.2°F6.2°C 42.6°F5.9°C 98% 1.2 mph S1.9 kmh S 2.3 mph3.7 kmh 29.80 in1009.1 mb - 0.00 in0.0 mm 0.00 in0.0 mm
04:40 AM 43.2°F6.2°C 42.7°F5.9°C 98% 2.3 mph S3.7 kmh S 3.5 mph5.6 kmh 29.80 in1009.1 mb - 0.00 in0.0 mm 0.00 in0.0 mm
04:50 AM 43.3°F6.3°C 42.7°F5.9°C 98% Calm Calm -- 29.80 in1009.1 mb - 0.00 in0.0 mm 0.00 in0.0 mm
05:00 AM 43.3°F6.3°C 42.8°F6.0°C 98% Calm Calm -- 29.79 in1008.8 mb - 0.00 in0.0 mm 0.00 in0.0 mm
05:10 AM 43.2°F6.2°C 42.7°F5.9°C 98% Calm Calm -- 29.80 in1009.1 mb - 0.00 in0.0 mm 0.00 in0.0 mm
05:20 AM 43.2°F6.2°C 42.7°F5.9°C 98% Calm Calm -- 29.80 in1009.1 mb - 0.00 in0.0 mm 0.00 in0.0 mm
05:30 AM 43.2°F6.2°C 42.7°F5.9°C 98% Calm Calm -- 29.79 in1008.8 mb - 0.00 in0.0 mm 0.00 in0.0 mm
05:40 AM 43.3°F6.3°C 42.8°F6.0°C 98% Calm Calm -- 29.80 in1009.1 mb - 0.00 in0.0 mm 0.00 in0.0 mm
05:50 AM 43.3°F6.3°C 42.7°F5.9°C 98% Calm Calm -- 29.80 in1009.1 mb - 0.00 in0.0 mm 0.00 in0.0 mm
06:00 AM 43.3°F6.3°C 42.7°F5.9°C 98% Calm Calm -- 29.81 in1009.5 mb - 0.00 in0.0 mm 0.00 in0.0 mm
06:10 AM 43.3°F6.3°C 42.8°F6.0°C 98% Calm Calm -- 29.80 in1009.1 mb - 0.00 in0.0 mm 0.00 in0.0 mm
06:20 AM 43.3°F6.3°C 42.8°F6.0°C 98% Calm Calm -- 29.80 in1009.1 mb - 0.00 in0.0 mm 0.00 in0.0 mm
06:30 AM 43.4°F6.3°C 42.9°F6.1°C 98% Calm Calm -- 29.80 in1009.1 mb - 0.00 in0.0 mm 0.00 in0.0 mm
06:40 AM 43.4°F6.3°C 42.9°F6.1°C 98% Calm Calm -- 29.80 in1009.1 mb - 0.00 in0.0 mm 0.00 in0.0 mm
06:50 AM 43.5°F6.4°C 43.0°F6.1°C 98% Calm Calm -- 29.79 in1008.8 mb - 0.00 in0.0 mm 0.00 in0.0 mm
07:00 AM 43.5°F6.4°C 43.0°F6.1°C 98% Calm Calm -- 29.79 in1008.8 mb - 0.00 in0.0 mm 0.00 in0.0 mm
07:10 AM 43.4°F6.3°C 42.9°F6.1°C 98% Calm Calm -- 29.79 in1008.8 mb - 0.00 in0.0 mm 0.00 in0.0 mm
07:20 AM 43.5°F6.4°C 43.0°F6.1°C 98% Calm Calm -- 29.79 in1008.8 mb - 0.00 in0.0 mm 0.00 in0.0 mm
07:30 AM 43.3°F6.3°C 42.8°F6.0°C 98% Calm Calm -- 29.79 in1008.8 mb - 0.00 in0.0 mm 0.00 in0.0 mm
07:40 AM 43.3°F6.3°C 42.8°F6.0°C 98% Calm Calm -- 29.78 in1008.5 mb - 0.00 in0.0 mm 0.00 in0.0 mm
07:50 AM 43.3°F6.3°C 42.8°F6.0°C 98% Calm Calm -- 29.79 in1008.8 mb - 0.00 in0.0 mm 0.00 in0.0 mm
08:00 AM 43.4°F6.3°C 42.9°F6.1°C 98% 1.2 mph N1.9 kmh N 3.5 mph5.6 kmh 29.78 in1008.5 mb - 0.00 in0.0 mm 0.00 in0.0 mm
08:10 AM 43.4°F6.3°C 42.9°F6.1°C 98% 1.2 mph NW1.9 kmh NW 3.5 mph5.6 kmh 29.77 in1008.1 mb - 0.00 in0.0 mm 0.00 in0.0 mm
08:20 AM 43.6°F6.4°C 43.1°F6.2°C 98% Calm Calm -- 29.78 in1008.5 mb - 0.00 in0.0 mm 0.00 in0.0 mm
08:30 AM 43.8°F6.6°C 43.3°F6.3°C 98% Calm Calm -- 29.79 in1008.8 mb - 0.00 in0.0 mm 0.00 in0.0 mm
08:40 AM 44.1°F6.7°C 43.6°F6.4°C 98% 2.3 mph ENE3.7 kmh ENE 3.5 mph5.6 kmh 29.77 in1008.1 mb - 0.00 in0.0 mm 0.00 in0.0 mm
08:50 AM 44.3°F6.8°C 43.7°F6.5°C 98% 2.3 mph E3.7 kmh E 3.5 mph5.6 kmh 29.77 in1008.1 mb - 0.00 in0.0 mm 0.00 in0.0 mm
09:00 AM 44.5°F6.9°C 44.0°F6.7°C 98% Calm Calm -- 29.78 in1008.5 mb - 0.00 in0.0 mm 0.00 in0.0 mm
09:10 AM 45.1°F7.3°C 44.6°F7.0°C 98% 1.2 mph NE1.9 kmh NE 3.5 mph5.6 kmh 29.77 in1008.1 mb - 0.00 in0.0 mm 0.00 in0.0 mm
09:20 AM 45.5°F7.5°C 45.0°F7.2°C 98% 2.3 mph ENE3.7 kmh ENE 3.5 mph5.6 kmh 29.78 in1008.5 mb - 0.00 in0.0 mm 0.00 in0.0 mm
09:30 AM 45.8°F7.7°C 45.3°F7.4°C 98% 2.3 mph E3.7 kmh E 2.3 mph3.7 kmh 29.78 in1008.5 mb - 0.00 in0.0 mm 0.00 in0.0 mm
09:40 AM 45.8°F7.7°C 45.3°F7.4°C 98% 2.3 mph ENE3.7 kmh ENE 3.5 mph5.6 kmh 29.78 in1008.5 mb - 0.00 in0.0 mm 0.00 in0.0 mm
09:50 AM 46.0°F7.8°C 45.5°F7.5°C 98% Calm Calm -- 29.78 in1008.5 mb - 0.00 in0.0 mm 0.00 in0.0 mm
10:00 AM 46.4°F8.0°C 45.9°F7.7°C 98% Calm Calm -- 29.77 in1008.1 mb - 0.00 in0.0 mm 0.00 in0.0 mm
10:10 AM 46.8°F8.2°C 46.3°F7.9°C 98% Calm Calm -- 29.77 in1008.1 mb - 0.00 in0.0 mm 0.00 in0.0 mm
10:20 AM 47.4°F8.6°C 46.9°F8.3°C 98% 1.2 mph ENE1.9 kmh ENE 3.5 mph5.6 kmh 29.77 in1008.1 mb - 0.00 in0.0 mm 0.00 in0.0 mm
10:30 AM 47.9°F8.8°C 47.4°F8.6°C 98% 2.3 mph NE3.7 kmh NE 3.5 mph5.6 kmh 29.76 in1007.8 mb - 0.00 in0.0 mm 0.00 in0.0 mm
10:40 AM 48.6°F9.2°C 48.1°F8.9°C 98% 1.2 mph E1.9 kmh E 2.3 mph3.7 kmh 29.76 in1007.8 mb - 0.00 in0.0 mm 0.00 in0.0 mm
10:50 AM 49.2°F9.6°C 48.4°F9.1°C 97% Calm Calm -- 29.76 in1007.8 mb - 0.00 in0.0 mm 0.00 in0.0 mm
11:00 AM 50.3°F10.2°C 49.5°F9.7°C 97% Calm Calm -- 29.76 in1007.8 mb - 0.00 in0.0 mm 0.00 in0.0 mm
11:10 AM 51.4°F10.8°C 49.8°F9.9°C 94% Calm Calm -- 29.76 in1007.8 mb - 0.00 in0.0 mm 0.00 in0.0 mm
11:20 AM 52.3°F11.3°C 49.8°F9.9°C 91% Calm Calm -- 29.74 in1007.1 mb - 0.00 in0.0 mm 0.00 in0.0 mm
11:30 AM 53.0°F11.7°C 49.8°F9.9°C 89% Calm Calm 1.2 mph1.9 kmh 29.75 in1007.5 mb - 0.00 in0.0 mm 0.00 in0.0 mm
11:40 AM 53.3°F11.8°C 49.8°F9.9°C 88% Calm Calm 1.2 mph1.9 kmh 29.75 in1007.5 mb - 0.00 in0.0 mm 0.00 in0.0 mm
11:50 AM 53.3°F11.8°C 49.8°F9.9°C 88% 1.2 mph N1.9 kmh N 2.3 mph3.7 kmh 29.74 in1007.1 mb - 0.00 in0.0 mm 0.00 in0.0 mm
12:00 PM 53.6°F12.0°C 50.1°F10.1°C 88% Calm Calm -- 29.74 in1007.1 mb - 0.00 in0.0 mm 0.00 in0.0 mm
12:10 PM 54.2°F12.3°C 50.1°F10.1°C 86% 1.2 mph NNW1.9 kmh NNW 2.3 mph3.7 kmh 29.73 in1006.8 mb - 0.00 in0.0 mm 0.00 in0.0 mm
12:20 PM 54.9°F12.7°C 50.8°F10.4°C 86% Calm Calm -- 29.73 in1006.8 mb - 0.00 in0.0 mm 0.00 in0.0 mm
12:30 PM 55.6°F13.1°C 51.2°F10.7°C 85% Calm Calm -- 29.71 in1006.1 mb - 0.00 in0.0 mm 0.00 in0.0 mm
12:40 PM 55.9°F13.3°C 51.1°F10.6°C 84% Calm Calm -- 29.71 in1006.1 mb - 0.00 in0.0 mm 0.00 in0.0 mm
12:50 PM 56.0°F13.3°C 50.9°F10.5°C 83% Calm Calm -- 29.70 in1005.8 mb - 0.00 in0.0 mm 0.00 in0.0 mm
01:00 PM 56.4°F13.6°C 51.3°F10.7°C 83% Calm Calm -- 29.70 in1005.8 mb - 0.00 in0.0 mm 0.00 in0.0 mm
01:10 PM 57.0°F13.9°C 51.6°F10.9°C 82% Calm Calm -- 29.70 in1005.8 mb - 0.00 in0.0 mm 0.00 in0.0 mm
01:20 PM 57.9°F14.4°C 52.4°F11.3°C 82% Calm Calm -- 29.69 in1005.4 mb - 0.00 in0.0 mm 0.00 in0.0 mm
01:30 PM 59.1°F15.1°C 52.6°F11.4°C 79% Calm Calm -- 29.69 in1005.4 mb - 0.00 in0.0 mm 0.00 in0.0 mm
01:40 PM 59.8°F15.4°C 52.2°F11.2°C 76% 2.3 mph S3.7 kmh S 4.6 mph7.4 kmh 29.69 in1005.4 mb - 0.00 in0.0 mm 0.00 in0.0 mm
01:50 PM 59.8°F15.4°C 51.9°F11.1°C 75% 2.3 mph SE3.7 kmh SE 4.6 mph7.4 kmh 29.69 in1005.4 mb - 0.00 in0.0 mm 0.00 in0.0 mm
02:00 PM 60.0°F15.6°C 52.0°F11.1°C 75% 2.3 mph SSE3.7 kmh SSE 4.6 mph7.4 kmh 29.68 in1005.1 mb - 0.00 in0.0 mm 0.00 in0.0 mm
02:10 PM 60.2°F15.7°C 51.5°F10.8°C 73% 2.3 mph SSE3.7 kmh SSE 3.5 mph5.6 kmh 29.68 in1005.1 mb - 0.00 in0.0 mm 0.00 in0.0 mm
02:20 PM 59.9°F15.5°C 51.2°F10.7°C 73% 1.2 mph SSE1.9 kmh SSE 3.5 mph5.6 kmh 29.68 in1005.1 mb - 0.00 in0.0 mm 0.00 in0.0 mm
02:30 PM 59.9°F15.5°C 51.6°F10.9°C 74% 1.2 mph SE1.9 kmh SE 2.3 mph3.7 kmh 29.68 in1005.1 mb - 0.00 in0.0 mm 0.00 in0.0 mm
02:40 PM 60.1°F15.6°C 51.1°F10.6°C 72% 3.5 mph SSE5.6 kmh SSE 4.6 mph7.4 kmh 29.68 in1005.1 mb - 0.00 in0.0 mm 0.00 in0.0 mm
02:50 PM 60.7°F15.9°C 51.6°F10.9°C 72% 2.3 mph SSE3.7 kmh SSE 3.5 mph5.6 kmh 29.68 in1005.1 mb - 0.00 in0.0 mm 0.00 in0.0 mm
03:00 PM 60.9°F16.1°C 51.0°F10.6°C 70% 2.3 mph SSE3.7 kmh SSE 3.5 mph5.6 kmh 29.68 in1005.1 mb - 0.00 in0.0 mm 0.00 in0.0 mm
03:10 PM 60.7°F15.9°C 51.2°F10.7°C 71% 2.3 mph ESE3.7 kmh ESE 3.5 mph5.6 kmh 29.67 in1004.7 mb - 0.00 in0.0 mm 0.00 in0.0 mm
03:20 PM 60.4°F15.8°C 51.0°F10.6°C 71% Calm Calm -- 29.67 in1004.7 mb - 0.00 in0.0 mm 0.00 in0.0 mm
03:30 PM 60.5°F15.8°C 51.0°F10.6°C 71% Calm Calm 1.2 mph1.9 kmh 29.67 in1004.7 mb - 0.00 in0.0 mm 0.00 in0.0 mm
03:40 PM 60.7°F15.9°C 51.6°F10.9°C 72% Calm Calm -- 29.67 in1004.7 mb - 0.00 in0.0 mm 0.00 in0.0 mm
03:50 PM 60.9°F16.1°C 51.4°F10.8°C 71% 1.2 mph SSE1.9 kmh SSE 2.3 mph3.7 kmh 29.67 in1004.7 mb - 0.00 in0.0 mm 0.00 in0.0 mm
04:00 PM 60.9°F16.1°C 51.4°F10.8°C 71% Calm Calm 1.2 mph1.9 kmh 29.67 in1004.7 mb - 0.00 in0.0 mm 0.00 in0.0 mm
04:10 PM 60.6°F15.9°C 51.1°F10.6°C 71% 1.2 mph SSE1.9 kmh SSE 1.2 mph1.9 kmh 29.67 in1004.7 mb - 0.00 in0.0 mm 0.00 in0.0 mm
04:20 PM 60.1°F15.6°C 51.4°F10.8°C 73% Calm Calm -- 29.67 in1004.7 mb - 0.00 in0.0 mm 0.00 in0.0 mm
04:30 PM 59.4°F15.2°C 51.1°F10.6°C 74% Calm Calm -- 29.66 in1004.4 mb - 0.00 in0.0 mm 0.00 in0.0 mm
04:40 PM 58.9°F14.9°C 50.6°F10.3°C 74% 1.2 mph SE1.9 kmh SE 2.3 mph3.7 kmh 29.66 in1004.4 mb - 0.00 in0.0 mm 0.00 in0.0 mm
04:50 PM 58.1°F14.5°C 50.6°F10.3°C 76% 1.2 mph SE1.9 kmh SE 2.3 mph3.7 kmh 29.66 in1004.4 mb - 0.00 in0.0 mm 0.00 in0.0 mm
05:00 PM 57.5°F14.2°C 50.4°F10.2°C 77% 1.2 mph SE1.9 kmh SE 2.3 mph3.7 kmh 29.66 in1004.4 mb - 0.00 in0.0 mm 0.00 in0.0 mm
05:10 PM 57.0°F13.9°C 50.2°F10.1°C 78% 2.3 mph E3.7 kmh E 2.3 mph3.7 kmh 29.66 in1004.4 mb - 0.00 in0.0 mm 0.00 in0.0 mm
05:20 PM 56.7°F13.7°C 50.3°F10.2°C 79% 2.3 mph ENE3.7 kmh ENE 3.5 mph5.6 kmh 29.66 in1004.4 mb - 0.00 in0.0 mm 0.00 in0.0 mm
05:30 PM 56.6°F13.7°C 50.2°F10.1°C 79% 2.3 mph NE3.7 kmh NE 3.5 mph5.6 kmh 29.66 in1004.4 mb - 0.00 in0.0 mm 0.00 in0.0 mm
05:40 PM 56.4°F13.6°C 50.3°F10.2°C 80% Calm Calm -- 29.66 in1004.4 mb - 0.00 in0.0 mm 0.00 in0.0 mm
05:50 PM 56.0°F13.3°C 50.3°F10.2°C 81% Calm Calm -- 29.66 in1004.4 mb - 0.00 in0.0 mm 0.00 in0.0 mm
06:00 PM 56.1°F13.4°C 50.0°F10.0°C 80% 1.2 mph E1.9 kmh E 2.3 mph3.7 kmh 29.66 in1004.4 mb - 0.00 in0.0 mm 0.00 in0.0 mm
06:10 PM 55.9°F13.3°C 49.9°F9.9°C 80% Calm Calm 1.2 mph1.9 kmh 29.66 in1004.4 mb - 0.00 in0.0 mm 0.00 in0.0 mm
06:20 PM 55.3°F12.9°C 49.9°F9.9°C 82% Calm Calm -- 29.66 in1004.4 mb - 0.00 in0.0 mm 0.00 in0.0 mm
06:30 PM 55.0°F12.8°C 49.9°F9.9°C 83% Calm Calm 1.2 mph1.9 kmh 29.66 in1004.4 mb - 0.00 in0.0 mm 0.00 in0.0 mm
06:40 PM 55.1°F12.8°C 50.0°F10.0°C 83% Calm Calm -- 29.67 in1004.7 mb - 0.00 in0.0 mm 0.00 in0.0 mm
06:50 PM 54.7°F12.6°C 49.6°F9.8°C 83% Calm Calm -- 29.67 in1004.7 mb - 0.00 in0.0 mm 0.00 in0.0 mm
07:00 PM 54.3°F12.4°C 49.9°F9.9°C 85% Calm Calm -- 29.67 in1004.7 mb - 0.00 in0.0 mm 0.00 in0.0 mm
07:10 PM 54.2°F12.3°C 49.8°F9.9°C 85% 1.2 mph E1.9 kmh E 2.3 mph3.7 kmh 29.67 in1004.7 mb - 0.00 in0.0 mm 0.00 in0.0 mm
07:20 PM 54.1°F12.3°C 49.7°F9.8°C 85% Calm Calm -- 29.67 in1004.7 mb - 0.00 in0.0 mm 0.00 in0.0 mm
07:30 PM 53.8°F12.1°C 49.7°F9.8°C 86% Calm Calm -- 29.67 in1004.7 mb - 0.00 in0.0 mm 0.00 in0.0 mm
07:40 PM 53.8°F12.1°C 49.7°F9.8°C 86% Calm Calm -- 29.67 in1004.7 mb - 0.00 in0.0 mm 0.00 in0.0 mm
07:50 PM 53.4°F11.9°C 49.4°F9.7°C 86% Calm Calm -- 29.67 in1004.7 mb - 0.00 in0.0 mm 0.00 in0.0 mm
08:00 PM 53.0°F11.7°C 48.9°F9.4°C 86% Calm Calm -- 29.67 in1004.7 mb - 0.00 in0.0 mm 0.00 in0.0 mm
08:10 PM 52.4°F11.3°C 48.6°F9.2°C 87% Calm Calm -- 29.67 in1004.7 mb - 0.00 in0.0 mm 0.00 in0.0 mm
08:20 PM 52.0°F11.1°C 48.5°F9.2°C 88% Calm Calm -- 29.67 in1004.7 mb - 0.00 in0.0 mm 0.00 in0.0 mm
08:40 PM 51.1°F10.6°C 48.3°F9.1°C 90% Calm Calm -- 29.67 in1004.7 mb - 0.00 in0.0 mm 0.00 in0.0 mm
08:50 PM 50.8°F10.4°C 47.9°F8.8°C 90% Calm Calm -- 29.67 in1004.7 mb - 0.00 in0.0 mm 0.00 in0.0 mm
09:00 PM 50.5°F10.3°C 48.0°F8.9°C 91% Calm Calm -- 29.68 in1005.1 mb - 0.00 in0.0 mm 0.00 in0.0 mm
09:10 PM 50.2°F10.1°C 47.7°F8.7°C 91% Calm Calm -- 29.68 in1005.1 mb - 0.00 in0.0 mm 0.00 in0.0 mm
09:20 PM 49.9°F9.9°C 47.7°F8.7°C 92% Calm Calm -- 29.68 in1005.1 mb - 0.00 in0.0 mm 0.00 in0.0 mm
09:30 PM 49.8°F9.9°C 47.6°F8.7°C 92% Calm Calm -- 29.68 in1005.1 mb - 0.00 in0.0 mm 0.00 in0.0 mm
09:40 PM 49.8°F9.9°C 47.9°F8.8°C 93% Calm Calm -- 29.68 in1005.1 mb - 0.00 in0.0 mm 0.00 in0.0 mm
09:50 PM 49.8°F9.9°C 47.9°F8.8°C 93% Calm Calm -- 29.67 in1004.7 mb - 0.00 in0.0 mm 0.00 in0.0 mm
10:00 PM 49.7°F9.8°C 47.8°F8.8°C 93% Calm Calm -- 29.66 in1004.4 mb - 0.00 in0.0 mm 0.00 in0.0 mm
10:10 PM 49.5°F9.7°C 47.6°F8.7°C 93% Calm Calm -- 29.66 in1004.4 mb - 0.00 in0.0 mm 0.00 in0.0 mm
10:20 PM 49.2°F9.6°C 47.3°F8.5°C 93% Calm Calm -- 29.66 in1004.4 mb - 0.00 in0.0 mm 0.00 in0.0 mm
10:30 PM 48.9°F9.4°C 47.0°F8.3°C 93% Calm Calm -- 29.66 in1004.4 mb - 0.00 in0.0 mm 0.00 in0.0 mm
10:40 PM 48.6°F9.2°C 46.7°F8.2°C 93% Calm Calm -- 29.66 in1004.4 mb - 0.00 in0.0 mm 0.00 in0.0 mm
10:50 PM 48.2°F9.0°C 46.3°F7.9°C 93% Calm Calm -- 29.66 in1004.4 mb - 0.00 in0.0 mm 0.00 in0.0 mm
11:00 PM 48.0°F8.9°C 46.4°F8.0°C 94% Calm Calm -- 29.66 in1004.4 mb - 0.00 in0.0 mm 0.00 in0.0 mm
11:10 PM 47.6°F8.7°C 46.0°F7.8°C 94% Calm Calm -- 29.66 in1004.4 mb - 0.00 in0.0 mm 0.00 in0.0 mm
11:20 PM 47.4°F8.6°C 45.7°F7.6°C 94% Calm Calm -- 29.66 in1004.4 mb - 0.00 in0.0 mm 0.00 in0.0 mm
11:30 PM 47.2°F8.4°C 45.6°F7.6°C 94% Calm Calm -- 29.66 in1004.4 mb - 0.00 in0.0 mm 0.00 in0.0 mm
11:40 PM 47.0°F8.3°C 45.6°F7.6°C 95% Calm Calm -- 29.66 in1004.4 mb - 0.00 in0.0 mm 0.00 in0.0 mm
11:50 PM 46.9°F8.3°C 45.5°F7.5°C 95% Calm Calm -- 29.66 in1004.4 mb - 0.00 in0.0 mm 0.00 in0.0 mm